createdAt,value
2019-04-12T00:00:49.305Z,17.43
2019-04-12T00:03:16.864Z,17.42
2019-04-12T00:05:44.459Z,17.42
2019-04-12T00:08:12.008Z,17.40
2019-04-12T00:10:41.690Z,17.38
2019-04-12T00:13:09.283Z,17.37
2019-04-12T00:15:36.807Z,17.36
2019-04-12T00:18:04.481Z,17.37
2019-04-12T00:20:32.073Z,17.38
2019-04-12T00:22:59.624Z,17.38
2019-04-12T00:25:27.111Z,17.35
2019-04-12T00:27:54.628Z,17.36
2019-04-12T00:30:22.158Z,17.35
2019-04-12T00:32:51.701Z,17.31
2019-04-12T00:35:21.607Z,17.31
2019-04-12T00:37:48.642Z,17.33
2019-04-12T00:40:16.159Z,17.39
2019-04-12T00:42:43.747Z,17.42
2019-04-12T00:45:11.299Z,17.38
2019-04-12T00:47:40.238Z,17.32
2019-04-12T00:50:11.060Z,17.32
2019-04-12T00:52:37.622Z,17.29
2019-04-12T00:55:05.241Z,17.28
2019-04-12T00:57:32.729Z,17.29
2019-04-12T01:00:00.300Z,17.25
2019-04-12T01:02:39.406Z,17.26
2019-04-12T01:05:16.966Z,17.28
2019-04-12T01:07:42.211Z,17.25
2019-04-12T01:10:09.737Z,17.25
2019-04-12T01:12:37.235Z,17.26
2019-04-12T01:15:04.861Z,17.20
2019-04-12T01:17:32.497Z,17.18
2019-04-12T01:20:02.310Z,17.20
2019-04-12T01:22:29.723Z,17.25
2019-04-12T01:24:57.885Z,17.25
2019-04-12T01:27:25.562Z,17.19
2019-04-12T01:29:53.274Z,17.11
2019-04-12T01:32:20.897Z,17.11
2019-04-12T01:34:48.554Z,17.19
2019-04-12T01:37:16.159Z,17.24
2019-04-12T01:39:43.674Z,17.29
2019-04-12T01:42:11.265Z,17.28
2019-04-12T01:44:38.960Z,17.31
2019-04-12T01:47:06.476Z,17.36
2019-04-12T01:49:34.058Z,17.36
2019-04-12T01:52:01.536Z,17.41
2019-04-12T01:54:29.058Z,17.36
2019-04-12T01:56:56.541Z,17.30
2019-04-12T01:59:24.100Z,17.30
2019-04-12T02:01:51.626Z,17.27
2019-04-12T02:04:19.128Z,17.27
2019-04-12T02:06:46.627Z,17.24
2019-04-12T02:09:14.276Z,17.25
2019-04-12T02:11:41.780Z,17.25
2019-04-12T02:14:09.834Z,17.22
2019-04-12T02:16:37.485Z,17.16
2019-04-12T02:19:05.051Z,17.17
2019-04-12T02:21:32.536Z,17.15
2019-04-12T02:24:00.051Z,17.15
2019-04-12T02:26:27.524Z,17.11
2019-04-12T02:28:55.072Z,17.06
2019-04-12T02:31:50.681Z,16.98
2019-04-12T02:34:18.746Z,16.96
2019-04-12T02:36:46.249Z,16.97
2019-04-12T02:39:13.772Z,17.03
2019-04-12T02:41:41.235Z,17.02
2019-04-12T02:44:08.836Z,17.03
2019-04-12T02:46:45.850Z,17.03
2019-04-12T02:49:17.934Z,17.04
2019-04-12T02:51:50.494Z,17.02
2019-04-12T02:54:26.774Z,17.05
2019-04-12T02:57:16.573Z,17.03
2019-04-12T02:59:44.102Z,17.04
2019-04-12T03:02:14.891Z,17.02
2019-04-12T03:04:42.398Z,16.97
2019-04-12T03:07:09.870Z,16.99
2019-04-12T03:09:37.424Z,17.02
2019-04-12T03:12:04.894Z,16.96
2019-04-12T03:14:33.282Z,16.87
2019-04-12T03:17:01.119Z,16.80
2019-04-12T03:19:28.606Z,16.78
2019-04-12T03:21:56.114Z,16.76
2019-04-12T03:24:24.180Z,16.74
2019-04-12T03:26:52.107Z,16.76
2019-04-12T03:29:19.609Z,16.74
2019-04-12T03:31:47.177Z,16.76
2019-04-12T03:34:14.726Z,16.77
2019-04-12T03:36:42.200Z,16.84
2019-04-12T03:39:09.717Z,16.86
2019-04-12T03:41:37.246Z,16.87
2019-04-12T03:44:04.987Z,16.87
2019-04-12T03:46:32.504Z,16.88
2019-04-12T03:48:59.991Z,16.82
2019-04-12T03:51:27.548Z,16.86
2019-04-12T03:53:55.070Z,16.85
2019-04-12T03:56:22.685Z,16.83
2019-04-12T03:58:52.079Z,16.83
2019-04-12T04:01:19.914Z,16.84
2019-04-12T04:03:47.428Z,16.84
2019-04-12T04:06:14.906Z,16.89
2019-04-12T04:08:42.427Z,16.87
2019-04-12T04:11:09.892Z,16.87
2019-04-12T04:13:37.455Z,16.87
2019-04-12T04:16:07.300Z,16.87
2019-04-12T04:18:34.860Z,16.87
2019-04-12T04:21:27.551Z,16.87
2019-04-12T04:24:04.968Z,16.83
2019-04-12T04:26:57.795Z,16.67
2019-04-12T04:29:43.393Z,16.67
2019-04-12T04:32:39.285Z,16.63
2019-04-12T04:35:06.800Z,16.71
2019-04-12T04:37:34.950Z,16.67
2019-04-12T04:40:02.670Z,16.74
2019-04-12T04:42:30.277Z,16.74
2019-04-12T04:44:57.735Z,16.77
2019-04-12T04:47:25.256Z,16.75
2019-04-12T04:49:55.055Z,16.74
2019-04-12T04:52:22.747Z,16.73
2019-04-12T04:54:50.282Z,16.80
2019-04-12T04:57:17.865Z,16.87
2019-04-12T04:59:45.323Z,16.87
2019-04-12T05:02:12.896Z,16.75
2019-04-12T05:04:40.378Z,16.75
2019-04-12T05:07:07.889Z,16.78
2019-04-12T05:09:35.386Z,16.74
2019-04-12T05:12:02.990Z,16.74
2019-04-12T05:14:30.478Z,16.70
2019-04-12T05:16:57.993Z,16.73
2019-04-12T05:19:25.504Z,16.73
2019-04-12T05:21:53.123Z,16.79
2019-04-12T05:24:20.685Z,16.90
2019-04-12T05:26:48.162Z,16.95
2019-04-12T05:29:15.657Z,16.97
2019-04-12T05:31:43.422Z,16.96
2019-04-12T05:34:10.963Z,16.87
2019-04-12T05:36:38.542Z,16.79
2019-04-12T05:39:06.486Z,16.76
2019-04-12T05:41:34.091Z,16.78
2019-04-12T05:44:09.759Z,16.83
2019-04-12T05:46:55.985Z,16.81
2019-04-12T05:49:33.463Z,16.84
2019-04-12T05:52:01.243Z,16.84
2019-04-12T05:54:29.043Z,16.87
2019-04-12T05:56:57.507Z,16.84
2019-04-12T05:59:37.688Z,16.77
2019-04-12T06:02:34.128Z,16.77
2019-04-12T06:05:02.130Z,16.79
2019-04-12T06:07:29.951Z,16.88
2019-04-12T06:09:58.041Z,16.88
2019-04-12T06:12:25.865Z,16.90
2019-04-12T06:14:53.747Z,16.90
2019-04-12T06:17:21.462Z,16.89
2019-04-12T06:19:49.599Z,16.85
2019-04-12T06:22:20.600Z,16.85
2019-04-12T06:25:02.623Z,16.99
2019-04-12T06:27:49.768Z,17.15
2019-04-12T06:30:35.358Z,17.19
2019-04-12T06:33:02.879Z,17.25
2019-04-12T06:35:30.419Z,17.25
2019-04-12T06:37:58.080Z,17.26
2019-04-12T06:40:25.617Z,17.26
2019-04-12T06:42:53.099Z,17.30
2019-04-12T06:45:20.598Z,17.29
2019-04-12T06:47:48.207Z,17.26
2019-04-12T06:50:27.276Z,17.30
2019-04-12T06:52:54.775Z,17.34
2019-04-12T06:55:23.298Z,17.31
2019-04-12T06:57:50.790Z,17.30
2019-04-12T07:00:38.191Z,17.29
2019-04-12T07:03:55.987Z,17.25
2019-04-12T07:06:13.614Z,17.32
2019-04-12T07:08:41.447Z,17.33
2019-04-12T07:11:09.129Z,17.34
2019-04-12T07:13:36.625Z,17.34
2019-04-12T07:16:04.094Z,17.38
2019-04-12T07:18:31.591Z,17.34
2019-04-12T07:20:59.318Z,17.35
2019-04-12T07:23:26.762Z,17.35
2019-04-12T07:25:54.193Z,17.36
2019-04-12T07:28:21.736Z,17.31
2019-04-12T07:30:56.572Z,17.25
2019-04-12T07:33:19.028Z,17.38
2019-04-12T07:35:46.971Z,17.38
2019-04-12T07:38:14.460Z,17.39
2019-04-12T07:40:42.200Z,17.41
2019-04-12T07:43:10.054Z,17.47
2019-04-12T07:45:37.820Z,17.50
2019-04-12T07:48:05.562Z,17.51
2019-04-12T07:50:59.317Z,17.52
2019-04-12T07:53:33.527Z,17.51
2019-04-12T07:56:06.369Z,17.54
2019-04-12T07:58:48.786Z,17.58
2019-04-12T08:01:30.107Z,17.58
2019-04-12T08:04:19.693Z,17.58
2019-04-12T08:06:52.173Z,17.59
2019-04-12T08:09:19.765Z,17.65
2019-04-12T08:11:47.280Z,17.66
2019-04-12T08:14:14.805Z,17.67
2019-04-12T08:16:42.299Z,17.67
2019-04-12T08:19:10.446Z,17.66
2019-04-12T08:21:37.947Z,17.66
2019-04-12T08:24:05.667Z,17.66
2019-04-12T08:26:33.174Z,17.63
2019-04-12T08:29:00.770Z,17.66
2019-04-12T08:31:28.357Z,17.70
2019-04-12T08:33:55.907Z,17.72
2019-04-12T08:36:23.405Z,17.72
2019-04-12T08:38:51.052Z,17.73
2019-04-12T08:41:18.631Z,17.75
2019-04-12T08:43:46.099Z,17.77
2019-04-12T08:46:13.713Z,17.77
2019-04-12T08:48:41.249Z,17.81
2019-04-12T08:51:08.721Z,17.76
2019-04-12T08:53:36.258Z,17.77
2019-04-12T08:56:03.919Z,17.80
2019-04-12T08:58:31.621Z,17.87
2019-04-12T09:00:59.375Z,17.90
2019-04-12T09:03:26.947Z,17.95
2019-04-12T09:05:54.508Z,17.97
2019-04-12T09:08:22.051Z,18.00
2019-04-12T09:10:49.547Z,17.97
2019-04-12T09:13:17.217Z,17.99
2019-04-12T09:15:45.005Z,18.02
2019-04-12T09:18:12.745Z,18.02
2019-04-12T09:21:06.067Z,18.04
2019-04-12T09:23:43.958Z,18.07
2019-04-12T09:26:12.032Z,18.07
2019-04-12T09:28:39.620Z,18.07
2019-04-12T09:31:07.967Z,18.08
2019-04-12T09:33:35.907Z,18.12
2019-04-12T09:36:03.871Z,18.15
2019-04-12T09:38:31.704Z,18.17
2019-04-12T09:41:00.861Z,18.19
2019-04-12T09:43:28.770Z,18.20
2019-04-12T09:45:56.640Z,18.22
2019-04-12T09:48:24.649Z,18.22
2019-04-12T09:50:52.312Z,18.22
2019-04-12T09:53:20.270Z,18.25
2019-04-12T09:55:48.269Z,18.11
2019-04-12T09:58:16.172Z,18.23
2019-04-12T10:00:43.871Z,18.24
2019-04-12T10:03:11.903Z,18.24
2019-04-12T10:05:39.890Z,18.24
2019-04-12T10:08:07.844Z,18.25
2019-04-12T10:10:35.421Z,18.27
2019-04-12T10:13:02.920Z,18.29
2019-04-12T10:15:30.529Z,18.31
2019-04-12T10:18:01.403Z,18.29
2019-04-12T10:20:29.433Z,18.30
2019-04-12T10:22:57.218Z,18.38
2019-04-12T10:25:24.954Z,18.36
2019-04-12T10:27:53.208Z,18.39
2019-04-12T10:30:21.061Z,18.40
2019-04-12T10:32:48.552Z,18.39
2019-04-12T10:35:16.204Z,18.38
2019-04-12T10:37:43.771Z,18.41
2019-04-12T10:40:11.532Z,18.44
2019-04-12T10:42:39.831Z,18.46
2019-04-12T10:45:27.032Z,18.46
2019-04-12T10:47:58.790Z,18.50
2019-04-12T10:50:55.329Z,18.50
2019-04-12T10:53:51.603Z,18.51
2019-04-12T10:56:19.365Z,18.48
2019-04-12T10:58:47.962Z,18.47
2019-04-12T11:01:15.838Z,18.48
2019-04-12T11:03:43.314Z,18.46
2019-04-12T11:06:10.852Z,18.41
2019-04-12T11:08:38.296Z,18.42
2019-04-12T11:11:07.567Z,18.43
2019-04-12T11:13:35.609Z,18.45
2019-04-12T11:16:03.474Z,18.48
2019-04-12T11:18:31.342Z,18.53
2019-04-12T11:20:59.348Z,18.54
2019-04-12T11:23:27.075Z,18.54
2019-04-12T11:25:54.939Z,18.53
2019-04-12T11:28:22.807Z,18.57
2019-04-12T11:30:50.570Z,18.62
2019-04-12T11:33:18.334Z,18.63
2019-04-12T11:35:46.095Z,18.60
2019-04-12T11:38:13.759Z,18.58
2019-04-12T11:40:41.380Z,18.56
2019-04-12T11:43:09.155Z,18.63
2019-04-12T11:45:37.149Z,18.67
2019-04-12T11:48:05.194Z,18.71
2019-04-12T11:50:33.584Z,18.75
2019-04-12T11:53:01.363Z,18.78
2019-04-12T11:55:28.858Z,18.79
2019-04-12T11:57:56.495Z,18.78
2019-04-12T12:00:36.207Z,18.76
2019-04-12T12:03:11.732Z,18.79
2019-04-12T12:05:56.701Z,18.88
2019-04-12T12:08:42.276Z,18.97
2019-04-12T12:11:32.077Z,19.08
2019-04-12T12:14:28.453Z,19.11
2019-04-12T12:17:15.465Z,19.11
2019-04-12T12:19:42.943Z,19.06
2019-04-12T12:22:10.455Z,19.00
2019-04-12T12:24:37.976Z,18.91
2019-04-12T12:27:05.442Z,18.85
2019-04-12T12:29:42.310Z,18.86
2019-04-12T12:32:02.292Z,18.90
2019-04-12T12:34:29.731Z,18.95
2019-04-12T12:36:57.205Z,18.94
2019-04-12T12:39:24.685Z,18.93
2019-04-12T12:41:52.178Z,18.91
2019-04-12T12:44:19.664Z,18.89
2019-04-12T12:46:47.172Z,18.90
2019-04-12T12:49:14.671Z,18.94
2019-04-12T12:51:42.138Z,19.02
2019-04-12T12:54:10.561Z,19.09
2019-04-12T12:56:38.030Z,19.17
2019-04-12T12:59:05.558Z,19.20
2019-04-12T13:01:33.046Z,19.22
2019-04-12T13:04:00.536Z,19.23
2019-04-12T13:06:28.029Z,19.24
2019-04-12T13:08:55.523Z,19.23
2019-04-12T13:11:23.044Z,19.24
2019-04-12T13:13:50.500Z,19.24
2019-04-12T13:16:18.013Z,19.25
2019-04-12T13:18:45.478Z,19.27
2019-04-12T13:21:13.034Z,19.30
2019-04-12T13:23:40.498Z,19.32
2019-04-12T13:26:07.989Z,19.36
2019-04-12T13:28:37.057Z,19.42
2019-04-12T13:31:23.091Z,19.49
2019-04-12T13:34:10.165Z,19.51
2019-04-12T13:37:00.414Z,19.53
2019-04-12T13:39:46.038Z,19.59
2019-04-12T13:42:33.061Z,19.65
2019-04-12T13:45:00.613Z,19.69
2019-04-12T13:47:28.120Z,19.74
2019-04-12T13:49:55.593Z,19.80
2019-04-12T13:52:23.153Z,19.81
2019-04-12T13:54:50.625Z,19.84
2019-04-12T13:57:18.129Z,19.90
2019-04-12T13:59:45.642Z,19.94
2019-04-12T14:02:13.235Z,19.93
2019-04-12T14:04:40.771Z,19.96
